< < Back
Terminal Aerodrome Forecast


Current Version              Previous Versions:   1  2  3  4  5  6  7  8  9  

Terminal Aerodrome Forecast

120
FTUS42 KGSP 242320
TAFAND
TAF
KAND 242320Z 2500/2524 13003KT P6SM SKC
     FM251300 02003KT P6SM FEW200
     FM251800 09004KT P6SM FEW250 PROB30 2521/2524 4SM -TSRA
      BKN060CB=

Latest METAR

564
SAUS70 KWBC 251400
MTRAND
METAR KAND 251356Z AUTO 00000KT 10SM CLR 27/18 A3012 RMK AO2 SLP188
T02720183


USA.gov is the U.S. government's official web portal to all federal, state and local government web resources and services.